sensor_id;sensor_type;location;lat;lon;timestamp;pressure;altitude;pressure_sealevel;temperature;humidity
23361;BME280;11852;50.082;18.554;2023-08-31T00:00:09;97863.0;;;15.36;100.0
23361;BME280;11852;50.082;18.554;2023-08-31T00:01:12;97865.0;;;15.36;100.0
23361;BME280;11852;50.082;18.554;2023-08-31T00:02:15;97869.0;;;15.36;100.0
23361;BME280;11852;50.082;18.554;2023-08-31T00:03:18;97867.0;;;15.37;100.0
23361;BME280;11852;50.082;18.554;2023-08-31T00:04:22;97868.0;;;15.37;100.0
23361;BME280;11852;50.082;18.554;2023-08-31T00:05:25;97867.0;;;15.36;100.0
23361;BME280;11852;50.082;18.554;2023-08-31T00:06:29;97869.0;;;15.34;100.0
23361;BME280;11852;50.082;18.554;2023-08-31T00:07:32;97867.0;;;15.37;100.0
23361;BME280;11852;50.082;18.554;2023-08-31T00:08:35;97862.0;;;15.37;100.0
23361;BME280;11852;50.082;18.554;2023-08-31T00:09:38;97865.0;;;15.35;100.0
23361;BME280;11852;50.082;18.554;2023-08-31T00:10:42;97864.0;;;15.33;100.0
23361;BME280;11852;50.082;18.554;2023-08-31T00:11:45;97858.0;;;15.34;100.0
23361;BME280;11852;50.082;18.554;2023-08-31T00:12:49;97865.0;;;15.33;100.0
23361;BME280;11852;50.082;18.554;2023-08-31T00:13:53;97864.0;;;15.29;100.0
23361;BME280;11852;50.082;18.554;2023-08-31T00:14:57;97864.0;;;15.26;100.0
23361;BME280;11852;50.082;18.554;2023-08-31T00:16:00;97864.0;;;15.28;100.0
23361;BME280;11852;50.082;18.554;2023-08-31T00:17:03;97868.0;;;15.25;100.0
23361;BME280;11852;50.082;18.554;2023-08-31T00:18:06;97865.0;;;15.23;100.0
23361;BME280;11852;50.082;18.554;2023-08-31T00:19:10;97868.0;;;15.24;100.0
23361;BME280;11852;50.082;18.554;2023-08-31T00:20:14;97870.0;;;15.25;100.0
23361;BME280;11852;50.082;18.554;2023-08-31T00:21:18;97869.0;;;15.28;100.0
23361;BME280;11852;50.082;18.554;2023-08-31T00:22:21;97871.0;;;15.27;100.0
23361;BME280;11852;50.082;18.554;2023-08-31T00:23:24;97869.0;;;15.27;100.0
23361;BME280;11852;50.082;18.554;2023-08-31T00:24:27;97866.0;;;15.29;100.0
23361;BME280;11852;50.082;18.554;2023-08-31T00:25:30;97868.0;;;15.31;100.0
23361;BME280;11852;50.082;18.554;2023-08-31T00:26:34;97865.0;;;15.33;100.0
23361;BME280;11852;50.082;18.554;2023-08-31T00:27:37;97868.0;;;15.33;100.0
23361;BME280;11852;50.082;18.554;2023-08-31T00:28:40;97867.0;;;15.35;100.0
23361;BME280;11852;50.082;18.554;2023-08-31T00:29:43;97869.0;;;15.36;100.0
23361;BME280;11852;50.082;18.554;2023-08-31T00:30:46;97870.0;;;15.36;100.0
23361;BME280;11852;50.082;18.554;2023-08-31T00:31:51;97868.0;;;15.36;100.0
23361;BME280;11852;50.082;18.554;2023-08-31T00:32:54;97871.0;;;15.38;100.0
23361;BME280;11852;50.082;18.554;2023-08-31T00:33:58;97867.0;;;15.36;100.0
23361;BME280;11852;50.082;18.554;2023-08-31T00:35:01;97870.0;;;15.37;100.0
23361;BME280;11852;50.082;18.554;2023-08-31T00:36:05;97868.0;;;15.38;100.0
23361;BME280;11852;50.082;18.554;2023-08-31T00:37:08;97871.0;;;15.37;100.0
23361;BME280;11852;50.082;18.554;2023-08-31T00:38:12;97873.0;;;15.36;100.0
23361;BME280;11852;50.082;18.554;2023-08-31T00:39:14;97869.0;;;15.36;100.0
23361;BME280;11852;50.082;18.554;2023-08-31T00:40:18;97871.0;;;15.36;100.0
23361;BME280;11852;50.082;18.554;2023-08-31T00:41:21;97865.0;;;15.37;100.0
23361;BME280;11852;50.082;18.554;2023-08-31T00:42:23;97865.0;;;15.38;100.0
23361;BME280;11852;50.082;18.554;2023-08-31T00:43:26;97862.0;;;15.39;100.0
23361;BME280;11852;50.082;18.554;2023-08-31T00:44:29;97862.0;;;15.41;100.0
23361;BME280;11852;50.082;18.554;2023-08-31T00:45:33;97864.0;;;15.42;100.0
23361;BME280;11852;50.082;18.554;2023-08-31T00:46:36;97864.0;;;15.43;100.0
23361;BME280;11852;50.082;18.554;2023-08-31T00:47:41;97862.0;;;15.44;100.0
23361;BME280;11852;50.082;18.554;2023-08-31T00:48:45;97862.0;;;15.45;100.0
23361;BME280;11852;50.082;18.554;2023-08-31T00:49:47;97861.0;;;15.46;100.0
23361;BME280;11852;50.082;18.554;2023-08-31T00:50:50;97860.0;;;15.47;100.0
23361;BME280;11852;50.082;18.554;2023-08-31T00:51:54;97864.0;;;15.49;100.0
23361;BME280;11852;50.082;18.554;2023-08-31T00:52:58;97863.0;;;15.49;100.0
23361;BME280;11852;50.082;18.554;2023-08-31T00:54:03;97865.0;;;15.5;100.0
23361;BME280;11852;50.082;18.554;2023-08-31T00:55:07;97867.0;;;15.51;100.0
23361;BME280;11852;50.082;18.554;2023-08-31T00:56:09;97867.0;;;15.49;100.0
23361;BME280;11852;50.082;18.554;2023-08-31T00:57:16;97865.0;;;15.45;100.0
23361;BME280;11852;50.082;18.554;2023-08-31T00:58:20;97865.0;;;15.46;100.0
23361;BME280;11852;50.082;18.554;2023-08-31T00:59:23;97863.0;;;15.45;100.0
23361;BME280;11852;50.082;18.554;2023-08-31T01:01:37;97861.0;;;15.41;100.0
23361;BME280;11852;50.082;18.554;2023-08-31T01:05:08;97861.0;;;15.44;100.0
23361;BME280;11852;50.082;18.554;2023-08-31T01:07:31;97865.0;;;15.47;100.0
23361;BME280;11852;50.082;18.554;2023-08-31T01:08:33;97866.0;;;15.47;100.0
23361;BME280;11852;50.082;18.554;2023-08-31T01:11:59;97865.0;;;15.51;100.0
23361;BME280;11852;50.082;18.554;2023-08-31T01:13:03;97864.0;;;15.52;100.0
23361;BME280;11852;50.082;18.554;2023-08-31T01:14:12;97866.0;;;15.51;100.0
23361;BME280;11852;50.082;18.554;2023-08-31T01:15:26;97863.0;;;15.51;100.0
23361;BME280;11852;50.082;18.554;2023-08-31T01:16:29;97869.0;;;15.5;100.0
23361;BME280;11852;50.082;18.554;2023-08-31T01:17:32;97864.0;;;15.5;100.0
23361;BME280;11852;50.082;18.554;2023-08-31T01:18:34;97869.0;;;15.49;100.0
23361;BME280;11852;50.082;18.554;2023-08-31T01:22:00;97871.0;;;15.49;100.0
23361;BME280;11852;50.082;18.554;2023-08-31T01:24:17;97875.0;;;15.48;100.0
23361;BME280;11852;50.082;18.554;2023-08-31T01:25:20;97873.0;;;15.48;100.0
23361;BME280;11852;50.082;18.554;2023-08-31T01:26:24;97872.0;;;15.48;100.0
23361;BME280;11852;50.082;18.554;2023-08-31T01:27:28;97873.0;;;15.49;100.0
23361;BME280;11852;50.082;18.554;2023-08-31T01:28:31;97872.0;;;15.52;100.0
23361;BME280;11852;50.082;18.554;2023-08-31T01:29:34;97872.0;;;15.53;100.0
23361;BME280;11852;50.082;18.554;2023-08-31T01:30:37;97874.0;;;15.53;100.0
23361;BME280;11852;50.082;18.554;2023-08-31T01:31:42;97873.0;;;15.52;100.0
23361;BME280;11852;50.082;18.554;2023-08-31T01:32:51;97876.0;;;15.52;100.0
23361;BME280;11852;50.082;18.554;2023-08-31T01:33:54;97871.0;;;15.55;100.0
23361;BME280;11852;50.082;18.554;2023-08-31T01:35:00;97878.0;;;15.53;100.0
23361;BME280;11852;50.082;18.554;2023-08-31T01:36:04;97875.0;;;15.51;100.0
23361;BME280;11852;50.082;18.554;2023-08-31T01:37:13;97877.0;;;15.51;100.0
23361;BME280;11852;50.082;18.554;2023-08-31T01:38:12;97878.0;;;15.52;100.0
23361;BME280;11852;50.082;18.554;2023-08-31T01:39:20;97873.0;;;15.53;100.0
23361;BME280;11852;50.082;18.554;2023-08-31T01:40:45;97875.0;;;15.53;100.0
23361;BME280;11852;50.082;18.554;2023-08-31T01:41:30;97875.0;;;15.52;100.0
23361;BME280;11852;50.082;18.554;2023-08-31T01:42:33;97880.0;;;15.51;100.0
23361;BME280;11852;50.082;18.554;2023-08-31T01:43:36;97877.0;;;15.5;100.0
23361;BME280;11852;50.082;18.554;2023-08-31T01:44:40;97877.0;;;15.48;100.0
23361;BME280;11852;50.082;18.554;2023-08-31T01:45:43;97876.0;;;15.46;100.0
23361;BME280;11852;50.082;18.554;2023-08-31T01:46:46;97878.0;;;15.46;100.0
23361;BME280;11852;50.082;18.554;2023-08-31T01:47:49;97876.0;;;15.47;100.0
23361;BME280;11852;50.082;18.554;2023-08-31T01:48:52;97878.0;;;15.47;100.0
23361;BME280;11852;50.082;18.554;2023-08-31T01:49:55;97876.0;;;15.43;100.0
23361;BME280;11852;50.082;18.554;2023-08-31T01:50:58;97874.0;;;15.42;100.0
23361;BME280;11852;50.082;18.554;2023-08-31T01:52:00;97874.0;;;15.43;100.0
23361;BME280;11852;50.082;18.554;2023-08-31T01:53:03;97873.0;;;15.41;100.0
23361;BME280;11852;50.082;18.554;2023-08-31T01:54:07;97876.0;;;15.42;100.0
23361;BME280;11852;50.082;18.554;2023-08-31T01:55:10;97879.0;;;15.4;100.0
23361;BME280;11852;50.082;18.554;2023-08-31T01:56:13;97877.0;;;15.42;100.0
23361;BME280;11852;50.082;18.554;2023-08-31T01:57:17;97878.0;;;15.42;100.0
23361;BME280;11852;50.082;18.554;2023-08-31T01:58:19;97878.0;;;15.4;100.0
23361;BME280;11852;50.082;18.554;2023-08-31T01:59:23;97880.0;;;15.4;100.0
23361;BME280;11852;50.082;18.554;2023-08-31T02:00:28;97877.0;;;15.41;100.0
23361;BME280;11852;50.082;18.554;2023-08-31T02:01:32;97880.0;;;15.43;100.0
23361;BME280;11852;50.082;18.554;2023-08-31T02:02:35;97879.0;;;15.42;100.0
23361;BME280;11852;50.082;18.554;2023-08-31T02:03:38;97879.0;;;15.39;100.0
23361;BME280;11852;50.082;18.554;2023-08-31T02:04:43;97882.0;;;15.34;100.0
23361;BME280;11852;50.082;18.554;2023-08-31T02:05:45;97884.0;;;15.34;100.0
23361;BME280;11852;50.082;18.554;2023-08-31T02:06:49;97884.0;;;15.35;100.0
23361;BME280;11852;50.082;18.554;2023-08-31T02:07:52;97882.0;;;15.33;100.0
23361;BME280;11852;50.082;18.554;2023-08-31T02:08:56;97880.0;;;15.34;100.0
23361;BME280;11852;50.082;18.554;2023-08-31T02:09:59;97882.0;;;15.36;100.0
23361;BME280;11852;50.082;18.554;2023-08-31T02:11:02;97882.0;;;15.36;100.0
23361;BME280;11852;50.082;18.554;2023-08-31T02:12:06;97881.0;;;15.36;100.0
23361;BME280;11852;50.082;18.554;2023-08-31T02:13:09;97881.0;;;15.32;100.0
23361;BME280;11852;50.082;18.554;2023-08-31T02:14:12;97883.0;;;15.32;100.0
23361;BME280;11852;50.082;18.554;2023-08-31T02:15:19;97881.0;;;15.32;100.0
23361;BME280;11852;50.082;18.554;2023-08-31T02:16:22;97880.0;;;15.34;100.0
23361;BME280;11852;50.082;18.554;2023-08-31T02:17:25;97882.0;;;15.34;100.0
23361;BME280;11852;50.082;18.554;2023-08-31T02:18:28;97884.0;;;15.35;100.0
23361;BME280;11852;50.082;18.554;2023-08-31T02:19:31;97883.0;;;15.32;100.0
23361;BME280;11852;50.082;18.554;2023-08-31T02:20:34;97883.0;;;15.34;100.0
23361;BME280;11852;50.082;18.554;2023-08-31T02:21:40;97879.0;;;15.34;100.0
23361;BME280;11852;50.082;18.554;2023-08-31T02:22:44;97877.0;;;15.36;100.0
23361;BME280;11852;50.082;18.554;2023-08-31T02:23:50;97879.0;;;15.37;100.0
23361;BME280;11852;50.082;18.554;2023-08-31T02:24:54;97877.0;;;15.38;100.0
23361;BME280;11852;50.082;18.554;2023-08-31T02:25:58;97882.0;;;15.41;100.0
23361;BME280;11852;50.082;18.554;2023-08-31T02:27:01;97884.0;;;15.4;100.0
23361;BME280;11852;50.082;18.554;2023-08-31T02:28:04;97885.0;;;15.41;100.0
23361;BME280;11852;50.082;18.554;2023-08-31T02:29:07;97885.0;;;15.42;100.0
23361;BME280;11852;50.082;18.554;2023-08-31T02:30:10;97885.0;;;15.42;100.0
23361;BME280;11852;50.082;18.554;2023-08-31T02:31:13;97889.0;;;15.41;100.0
23361;BME280;11852;50.082;18.554;2023-08-31T02:32:16;97887.0;;;15.41;100.0
23361;BME280;11852;50.082;18.554;2023-08-31T02:33:20;97888.0;;;15.42;100.0
23361;BME280;11852;50.082;18.554;2023-08-31T02:34:23;97887.0;;;15.41;100.0
23361;BME280;11852;50.082;18.554;2023-08-31T02:35:26;97888.0;;;15.41;100.0
23361;BME280;11852;50.082;18.554;2023-08-31T02:36:30;97889.0;;;15.42;100.0
23361;BME280;11852;50.082;18.554;2023-08-31T02:37:33;97884.0;;;15.43;100.0
23361;BME280;11852;50.082;18.554;2023-08-31T02:38:36;97886.0;;;15.45;100.0
23361;BME280;11852;50.082;18.554;2023-08-31T02:39:39;97886.0;;;15.46;100.0
23361;BME280;11852;50.082;18.554;2023-08-31T02:40:45;97886.0;;;15.46;100.0
23361;BME280;11852;50.082;18.554;2023-08-31T02:41:46;97888.0;;;15.47;100.0
23361;BME280;11852;50.082;18.554;2023-08-31T02:42:51;97888.0;;;15.4;100.0
23361;BME280;11852;50.082;18.554;2023-08-31T02:43:55;97890.0;;;15.39;100.0
23361;BME280;11852;50.082;18.554;2023-08-31T02:45:00;97888.0;;;15.41;100.0
23361;BME280;11852;50.082;18.554;2023-08-31T02:46:03;97889.0;;;15.43;100.0
23361;BME280;11852;50.082;18.554;2023-08-31T02:47:06;97889.0;;;15.47;100.0
23361;BME280;11852;50.082;18.554;2023-08-31T02:48:09;97886.0;;;15.49;100.0
23361;BME280;11852;50.082;18.554;2023-08-31T02:49:12;97886.0;;;15.51;100.0
23361;BME280;11852;50.082;18.554;2023-08-31T02:50:15;97888.0;;;15.53;100.0
23361;BME280;11852;50.082;18.554;2023-08-31T02:51:18;97887.0;;;15.54;100.0
23361;BME280;11852;50.082;18.554;2023-08-31T02:52:21;97890.0;;;15.55;100.0
23361;BME280;11852;50.082;18.554;2023-08-31T02:53:24;97887.0;;;15.56;100.0
23361;BME280;11852;50.082;18.554;2023-08-31T02:54:27;97891.0;;;15.55;100.0
23361;BME280;11852;50.082;18.554;2023-08-31T02:55:33;97887.0;;;15.52;100.0
23361;BME280;11852;50.082;18.554;2023-08-31T02:56:36;97887.0;;;15.52;100.0
23361;BME280;11852;50.082;18.554;2023-08-31T02:57:39;97886.0;;;15.53;100.0
23361;BME280;11852;50.082;18.554;2023-08-31T02:58:42;97883.0;;;15.54;100.0
23361;BME280;11852;50.082;18.554;2023-08-31T02:59:44;97884.0;;;15.54;100.0
23361;BME280;11852;50.082;18.554;2023-08-31T03:00:48;97889.0;;;15.54;100.0
23361;BME280;11852;50.082;18.554;2023-08-31T03:01:51;97885.0;;;15.54;100.0
23361;BME280;11852;50.082;18.554;2023-08-31T03:02:54;97884.0;;;15.53;100.0
23361;BME280;11852;50.082;18.554;2023-08-31T03:03:57;97887.0;;;15.53;100.0
23361;BME280;11852;50.082;18.554;2023-08-31T03:05:03;97885.0;;;15.54;100.0
23361;BME280;11852;50.082;18.554;2023-08-31T03:06:06;97887.0;;;15.52;100.0
23361;BME280;11852;50.082;18.554;2023-08-31T03:07:09;97888.0;;;15.51;100.0
23361;BME280;11852;50.082;18.554;2023-08-31T03:08:12;97891.0;;;15.45;100.0
23361;BME280;11852;50.082;18.554;2023-08-31T03:09:15;97892.0;;;15.4;100.0
23361;BME280;11852;50.082;18.554;2023-08-31T03:10:20;97896.0;;;15.37;100.0
23361;BME280;11852;50.082;18.554;2023-08-31T03:11:21;97898.0;;;15.32;100.0
23361;BME280;11852;50.082;18.554;2023-08-31T03:12:24;97901.0;;;15.26;100.0
23361;BME280;11852;50.082;18.554;2023-08-31T03:13:27;97902.0;;;15.31;100.0
23361;BME280;11852;50.082;18.554;2023-08-31T03:14:30;97898.0;;;15.33;100.0
23361;BME280;11852;50.082;18.554;2023-08-31T03:15:34;97899.0;;;15.34;100.0
23361;BME280;11852;50.082;18.554;2023-08-31T03:16:36;97899.0;;;15.3;100.0
23361;BME280;11852;50.082;18.554;2023-08-31T03:17:39;97899.0;;;15.24;100.0
23361;BME280;11852;50.082;18.554;2023-08-31T03:18:42;97902.0;;;15.29;100.0
23361;BME280;11852;50.082;18.554;2023-08-31T03:19:46;97901.0;;;15.33;100.0
23361;BME280;11852;50.082;18.554;2023-08-31T03:20:49;97903.0;;;15.36;100.0
23361;BME280;11852;50.082;18.554;2023-08-31T03:21:52;97898.0;;;15.35;100.0
23361;BME280;11852;50.082;18.554;2023-08-31T03:22:57;97898.0;;;15.36;100.0
23361;BME280;11852;50.082;18.554;2023-08-31T03:24:02;97901.0;;;15.33;100.0
23361;BME280;11852;50.082;18.554;2023-08-31T03:25:05;97904.0;;;15.34;100.0
23361;BME280;11852;50.082;18.554;2023-08-31T03:26:09;97905.0;;;15.35;100.0
23361;BME280;11852;50.082;18.554;2023-08-31T03:27:11;97901.0;;;15.31;100.0
23361;BME280;11852;50.082;18.554;2023-08-31T03:28:17;97903.0;;;15.32;100.0
23361;BME280;11852;50.082;18.554;2023-08-31T03:29:20;97904.0;;;15.27;100.0
23361;BME280;11852;50.082;18.554;2023-08-31T03:30:23;97900.0;;;15.26;100.0
23361;BME280;11852;50.082;18.554;2023-08-31T03:31:26;97905.0;;;15.29;100.0
23361;BME280;11852;50.082;18.554;2023-08-31T03:32:29;97902.0;;;15.29;100.0
23361;BME280;11852;50.082;18.554;2023-08-31T03:33:32;97904.0;;;15.31;100.0
23361;BME280;11852;50.082;18.554;2023-08-31T03:34:36;97903.0;;;15.31;100.0
23361;BME280;11852;50.082;18.554;2023-08-31T03:35:39;97904.0;;;15.3;100.0
23361;BME280;11852;50.082;18.554;2023-08-31T03:36:42;97902.0;;;15.27;100.0
23361;BME280;11852;50.082;18.554;2023-08-31T03:37:48;97902.0;;;15.3;100.0
23361;BME280;11852;50.082;18.554;2023-08-31T03:38:51;97905.0;;;15.3;100.0
23361;BME280;11852;50.082;18.554;2023-08-31T03:39:54;97905.0;;;15.29;100.0
23361;BME280;11852;50.082;18.554;2023-08-31T03:40:57;97908.0;;;15.23;100.0
23361;BME280;11852;50.082;18.554;2023-08-31T03:41:59;97905.0;;;15.24;100.0
23361;BME280;11852;50.082;18.554;2023-08-31T03:43:02;97906.0;;;15.23;100.0
23361;BME280;11852;50.082;18.554;2023-08-31T03:44:05;97911.0;;;15.16;100.0
23361;BME280;11852;50.082;18.554;2023-08-31T03:45:09;97916.0;;;15.12;100.0
23361;BME280;11852;50.082;18.554;2023-08-31T03:46:13;97911.0;;;15.1;100.0
23361;BME280;11852;50.082;18.554;2023-08-31T03:47:16;97912.0;;;15.16;100.0
23361;BME280;11852;50.082;18.554;2023-08-31T03:48:19;97911.0;;;15.17;100.0
23361;BME280;11852;50.082;18.554;2023-08-31T03:49:22;97913.0;;;15.2;100.0
23361;BME280;11852;50.082;18.554;2023-08-31T03:50:27;97916.0;;;15.2;100.0
23361;BME280;11852;50.082;18.554;2023-08-31T03:51:31;97916.0;;;15.17;100.0
23361;BME280;11852;50.082;18.554;2023-08-31T03:52:34;97919.0;;;15.18;100.0
23361;BME280;11852;50.082;18.554;2023-08-31T03:53:37;97923.0;;;15.17;100.0
23361;BME280;11852;50.082;18.554;2023-08-31T03:54:40;97925.0;;;15.19;100.0
23361;BME280;11852;50.082;18.554;2023-08-31T03:55:42;97926.0;;;15.18;100.0
23361;BME280;11852;50.082;18.554;2023-08-31T03:56:45;97927.0;;;15.19;100.0
23361;BME280;11852;50.082;18.554;2023-08-31T03:57:48;97927.0;;;15.18;100.0
23361;BME280;11852;50.082;18.554;2023-08-31T03:58:51;97922.0;;;15.2;100.0
23361;BME280;11852;50.082;18.554;2023-08-31T03:59:54;97922.0;;;15.2;100.0
23361;BME280;11852;50.082;18.554;2023-08-31T04:00:57;97925.0;;;15.18;100.0
23361;BME280;11852;50.082;18.554;2023-08-31T04:02:00;97922.0;;;15.16;100.0
23361;BME280;11852;50.082;18.554;2023-08-31T04:03:04;97925.0;;;15.14;100.0
23361;BME280;11852;50.082;18.554;2023-08-31T04:04:09;97928.0;;;15.16;100.0
23361;BME280;11852;50.082;18.554;2023-08-31T04:05:12;97930.0;;;15.17;100.0
23361;BME280;11852;50.082;18.554;2023-08-31T04:06:16;97931.0;;;15.17;100.0
23361;BME280;11852;50.082;18.554;2023-08-31T04:07:18;97932.0;;;15.18;100.0
23361;BME280;11852;50.082;18.554;2023-08-31T04:08:22;97927.0;;;15.21;100.0
23361;BME280;11852;50.082;18.554;2023-08-31T04:09:25;97930.0;;;15.22;100.0
23361;BME280;11852;50.082;18.554;2023-08-31T04:10:28;97928.0;;;15.23;100.0
23361;BME280;11852;50.082;18.554;2023-08-31T04:11:31;97930.0;;;15.2;100.0
23361;BME280;11852;50.082;18.554;2023-08-31T04:12:35;97926.0;;;15.23;100.0
23361;BME280;11852;50.082;18.554;2023-08-31T04:13:39;97927.0;;;15.24;100.0
23361;BME280;11852;50.082;18.554;2023-08-31T04:14:43;97926.0;;;15.18;100.0
23361;BME280;11852;50.082;18.554;2023-08-31T04:15:45;97924.0;;;15.18;100.0
23361;BME280;11852;50.082;18.554;2023-08-31T04:16:48;97923.0;;;15.21;100.0
23361;BME280;11852;50.082;18.554;2023-08-31T04:17:51;97924.0;;;15.19;100.0
23361;BME280;11852;50.082;18.554;2023-08-31T04:18:54;97926.0;;;15.2;100.0
23361;BME280;11852;50.082;18.554;2023-08-31T04:19:58;97924.0;;;15.17;100.0
23361;BME280;11852;50.082;18.554;2023-08-31T04:21:00;97925.0;;;15.15;100.0
23361;BME280;11852;50.082;18.554;2023-08-31T04:22:04;97931.0;;;15.16;100.0
23361;BME280;11852;50.082;18.554;2023-08-31T04:23:07;97929.0;;;15.12;100.0
23361;BME280;11852;50.082;18.554;2023-08-31T04:24:09;97931.0;;;15.13;100.0
23361;BME280;11852;50.082;18.554;2023-08-31T04:25:13;97933.0;;;15.11;100.0
23361;BME280;11852;50.082;18.554;2023-08-31T04:26:16;97929.0;;;15.11;100.0
23361;BME280;11852;50.082;18.554;2023-08-31T04:27:19;97930.0;;;15.05;100.0
23361;BME280;11852;50.082;18.554;2023-08-31T04:28:22;97929.0;;;15.1;100.0
23361;BME280;11852;50.082;18.554;2023-08-31T04:29:26;97930.0;;;15.01;100.0
23361;BME280;11852;50.082;18.554;2023-08-31T04:30:29;97924.0;;;15.03;100.0
23361;BME280;11852;50.082;18.554;2023-08-31T04:31:32;97924.0;;;15.05;100.0
23361;BME280;11852;50.082;18.554;2023-08-31T04:32:35;97926.0;;;15.09;100.0
23361;BME280;11852;50.082;18.554;2023-08-31T04:33:38;97925.0;;;15.11;100.0
23361;BME280;11852;50.082;18.554;2023-08-31T04:34:41;97927.0;;;15.11;100.0
23361;BME280;11852;50.082;18.554;2023-08-31T04:35:44;97935.0;;;15.13;100.0
23361;BME280;11852;50.082;18.554;2023-08-31T04:36:46;97933.0;;;15.04;100.0
23361;BME280;11852;50.082;18.554;2023-08-31T04:37:50;97932.0;;;15.04;100.0
23361;BME280;11852;50.082;18.554;2023-08-31T04:38:54;97935.0;;;15.03;100.0
23361;BME280;11852;50.082;18.554;2023-08-31T04:39:57;97936.0;;;15.02;100.0
23361;BME280;11852;50.082;18.554;2023-08-31T04:41:00;97935.0;;;15.03;100.0
23361;BME280;11852;50.082;18.554;2023-08-31T04:42:02;97936.0;;;14.99;100.0
23361;BME280;11852;50.082;18.554;2023-08-31T04:43:05;97935.0;;;14.99;100.0
23361;BME280;11852;50.082;18.554;2023-08-31T04:44:09;97930.0;;;15.05;100.0
23361;BME280;11852;50.082;18.554;2023-08-31T04:45:11;97927.0;;;15.1;100.0
23361;BME280;11852;50.082;18.554;2023-08-31T04:46:14;97929.0;;;15.08;100.0
23361;BME280;11852;50.082;18.554;2023-08-31T04:47:18;97929.0;;;15.1;100.0
23361;BME280;11852;50.082;18.554;2023-08-31T04:48:20;97927.0;;;15.12;100.0
23361;BME280;11852;50.082;18.554;2023-08-31T04:49:23;97933.0;;;15.13;100.0
23361;BME280;11852;50.082;18.554;2023-08-31T04:50:26;97935.0;;;15.14;100.0
23361;BME280;11852;50.082;18.554;2023-08-31T04:51:29;97931.0;;;15.12;100.0
23361;BME280;11852;50.082;18.554;2023-08-31T04:52:32;97933.0;;;15.11;100.0
23361;BME280;11852;50.082;18.554;2023-08-31T04:53:34;97935.0;;;15.09;100.0
23361;BME280;11852;50.082;18.554;2023-08-31T04:54:38;97934.0;;;15.13;100.0
23361;BME280;11852;50.082;18.554;2023-08-31T04:55:41;97937.0;;;15.15;100.0
23361;BME280;11852;50.082;18.554;2023-08-31T04:56:44;97937.0;;;15.09;100.0
23361;BME280;11852;50.082;18.554;2023-08-31T04:57:47;97943.0;;;15.03;100.0
23361;BME280;11852;50.082;18.554;2023-08-31T04:58:51;97940.0;;;15.06;100.0
23361;BME280;11852;50.082;18.554;2023-08-31T04:59:54;97941.0;;;15.07;100.0
23361;BME280;11852;50.082;18.554;2023-08-31T05:00:56;97946.0;;;15.03;100.0
23361;BME280;11852;50.082;18.554;2023-08-31T05:01:59;97946.0;;;15.07;100.0
23361;BME280;11852;50.082;18.554;2023-08-31T05:03:02;97942.0;;;15.1;100.0
23361;BME280;11852;50.082;18.554;2023-08-31T05:04:06;97948.0;;;15.11;100.0
23361;BME280;11852;50.082;18.554;2023-08-31T05:05:09;97947.0;;;15.08;100.0
23361;BME280;11852;50.082;18.554;2023-08-31T05:06:12;97946.0;;;15.04;100.0
23361;BME280;11852;50.082;18.554;2023-08-31T05:07:14;97946.0;;;15.0;100.0
23361;BME280;11852;50.082;18.554;2023-08-31T05:08:17;97951.0;;;15.06;100.0
23361;BME280;11852;50.082;18.554;2023-08-31T05:09:20;97946.0;;;15.09;100.0
23361;BME280;11852;50.082;18.554;2023-08-31T05:10:23;97943.0;;;15.08;100.0
23361;BME280;11852;50.082;18.554;2023-08-31T05:11:26;97944.0;;;15.12;100.0
23361;BME280;11852;50.082;18.554;2023-08-31T05:12:29;97945.0;;;15.16;100.0
23361;BME280;11852;50.082;18.554;2023-08-31T05:13:33;97943.0;;;15.2;100.0
23361;BME280;11852;50.082;18.554;2023-08-31T05:14:35;97942.0;;;15.18;100.0
23361;BME280;11852;50.082;18.554;2023-08-31T05:15:38;97946.0;;;15.18;100.0
23361;BME280;11852;50.082;18.554;2023-08-31T05:16:41;97947.0;;;15.2;100.0
23361;BME280;11852;50.082;18.554;2023-08-31T05:17:44;97948.0;;;15.12;100.0
23361;BME280;11852;50.082;18.554;2023-08-31T05:18:48;97950.0;;;15.15;100.0
23361;BME280;11852;50.082;18.554;2023-08-31T05:19:51;97956.0;;;15.19;100.0
23361;BME280;11852;50.082;18.554;2023-08-31T05:20:54;97955.0;;;15.21;100.0
23361;BME280;11852;50.082;18.554;2023-08-31T05:21:57;97955.0;;;15.23;100.0
23361;BME280;11852;50.082;18.554;2023-08-31T05:23:00;97958.0;;;15.12;100.0
23361;BME280;11852;50.082;18.554;2023-08-31T05:24:03;97961.0;;;15.17;100.0
23361;BME280;11852;50.082;18.554;2023-08-31T05:25:06;97961.0;;;15.21;100.0
23361;BME280;11852;50.082;18.554;2023-08-31T05:26:09;97959.0;;;15.22;100.0
23361;BME280;11852;50.082;18.554;2023-08-31T05:27:12;97962.0;;;15.24;100.0
23361;BME280;11852;50.082;18.554;2023-08-31T05:28:15;97960.0;;;15.25;100.0
23361;BME280;11852;50.082;18.554;2023-08-31T05:29:18;97964.0;;;15.25;100.0
23361;BME280;11852;50.082;18.554;2023-08-31T05:30:22;97959.0;;;15.25;100.0
23361;BME280;11852;50.082;18.554;2023-08-31T05:31:28;97960.0;;;15.23;100.0
23361;BME280;11852;50.082;18.554;2023-08-31T05:32:32;97959.0;;;15.16;100.0
23361;BME280;11852;50.082;18.554;2023-08-31T05:33:35;97960.0;;;15.17;100.0
23361;BME280;11852;50.082;18.554;2023-08-31T05:34:38;97960.0;;;15.2;100.0
23361;BME280;11852;50.082;18.554;2023-08-31T05:35:41;97958.0;;;15.22;100.0
23361;BME280;11852;50.082;18.554;2023-08-31T05:36:44;97960.0;;;15.26;100.0
23361;BME280;11852;50.082;18.554;2023-08-31T05:37:48;97962.0;;;15.28;100.0
23361;BME280;11852;50.082;18.554;2023-08-31T05:38:51;97960.0;;;15.28;100.0
23361;BME280;11852;50.082;18.554;2023-08-31T05:39:54;97963.0;;;15.31;100.0
23361;BME280;11852;50.082;18.554;2023-08-31T05:41:04;97967.0;;;15.34;100.0
23361;BME280;11852;50.082;18.554;2023-08-31T05:42:06;97966.0;;;15.24;100.0
23361;BME280;11852;50.082;18.554;2023-08-31T05:43:09;97965.0;;;15.28;100.0
23361;BME280;11852;50.082;18.554;2023-08-31T05:44:12;97960.0;;;15.31;100.0
23361;BME280;11852;50.082;18.554;2023-08-31T05:45:15;97964.0;;;15.35;100.0
23361;BME280;11852;50.082;18.554;2023-08-31T05:46:18;97967.0;;;15.31;100.0